• Join FlightAware (Why Join?)
  • Login
  • US Flag 
10:40AM EDT


 

Airport Tracker/Info


-or-


 

Live Flight TrackerFlight Track Log ✈ SWA862 ✈ 10-Apr-2013 ✈ KTPA - KRDU

Flight Track Log - Related Links

Times and Time Zones

All times are in EDT time to prevent confusion due to time zone crossing. See the SWA862 flight status page for this flight to view local times or setup timezone preferences in your user account.

Time Position Orientation Groundspeed Altitude Reporting Facility
EDT Latitude Longitude Course Direction KTS MPH feet Rate Location/Type
06:55PM 27.9667 -82.5500 180° South 163 188 500  Level Tampa TRACON
06:56PM 27.9333 -82.5500 180° South 188 216 2,900 3,060 Climbing Tampa TRACON
06:57PM 27.8667 -82.5833 204° Southwest 216 249 6,400 2,280 Climbing Tampa TRACON
06:57PM 27.8333 -82.6000 204° Southwest 220 253 7,100 1,440 Climbing Tampa TRACON
06:58PM 27.8833 -82.6333 329° Northwest 256 295 9,100 1,680 Climbing Tampa TRACON
07:00PM 28.0494 -82.6197 North 350 403 12,000 2,580 Climbing Jacksonville Center
07:02PM 28.2769 -82.5933 North 399 459 19,000 3,300 Climbing Jacksonville Center
07:03PM 28.3978 -82.5811 North 417 480 22,000 3,000 Climbing Jacksonville Center
07:04PM 28.5189 -82.5856 358° North 429 494 25,000 2,700 Climbing Jacksonville Center
07:05PM 28.6422 -82.6158 348° North 447 514 27,400 2,340 Climbing Jacksonville Center
07:06PM 28.7508 -82.6486 345° North 447 514 29,700 2,460 Climbing Jacksonville Center
07:07PM 28.8719 -82.6839 346° North 447 514 32,400 3,180 Climbing Jacksonville Center
07:08PM 28.9867 -82.7122 348° North 440 506 36,100 3,120 Climbing Jacksonville Center
07:09PM 29.0953 -82.7214 356° North 412 474 38,700 1,800 Climbing Jacksonville Center
07:10PM 29.2039 -82.7189 North 394 453 39,800 600 Climbing Jacksonville Center
07:11PM 29.3186 -82.7139 North 394 453 40,000 60 Climbing Jacksonville Center
07:12PM 29.4314 -82.7089 North 400 460 40,000 540 Level Jacksonville Center
07:13PM 29.5461 -82.7064 North 400 460 41,100 480 Climbing Jacksonville Center
07:14PM 29.6589 -82.6656 17° North 406 467 41,000 -60 Descending Jacksonville Center
07:15PM 29.7736 -82.6175 20° North 418 481 41,000  Level Jacksonville Center
07:16PM 29.8883 -82.5739 18° North 423 487 41,000  Level Jacksonville Center
07:17PM 30.0175 -82.5303 16° North 428 493 41,000  Level Jacksonville Center
07:18PM 30.1219 -82.4939 17° North 423 487 41,000  Level Jacksonville Center
07:19PM 30.2386 -82.4525 17° North 423 487 41,000  Level Jacksonville Center
07:20PM 30.3533 -82.4086 18° North 428 493 41,000  Level Jacksonville Center
07:21PM 30.4700 -82.3647 18° North 428 493 41,000  Level Jacksonville Center
07:22PM 30.5847 -82.3206 18° North 433 498 41,000  Level Jacksonville Center
07:23PM 30.7014 -82.2789 17° North 428 493 41,000  Level Jacksonville Center
07:24PM 30.8119 -82.2369 18° North 423 487 41,000  Level Jacksonville Center
07:25PM 30.9286 -82.1975 16° North 423 487 41,000  Level Jacksonville Center
07:26PM 31.0431 -82.1506 19° North 423 487 41,000  Level Jacksonville Center
07:27PM 31.1556 -82.1108 17° North 418 481 41,000  Level Jacksonville Center
07:28PM 31.2703 -82.0661 18° North 425 489 41,000  Level Jacksonville Center
07:29PM 31.3828 -82.0286 16° North 419 482 41,000  Level Jacksonville Center
07:30PM 31.5033 -81.9764 20° North 420 483 41,100  Climbing Jacksonville Center
07:31PM 31.6181 -81.9336 18° North 425 489 41,100  Level Jacksonville Center
07:32PM 31.7178 -81.8936 19° North 417 480 41,100  Level Jacksonville Center
07:33PM 31.8406 -81.8458 18° North 417 480 41,100  Level Jacksonville Center
07:34PM 31.9531 -81.8053 17° North 422 486 41,100  Level Jacksonville Center
07:35PM 32.0531 -81.7675 18° North 419 482 41,100  Level Jacksonville Center
07:36PM 32.1778 -81.7192 18° North 419 482 41,100  Level Jacksonville Center
07:37PM 32.2922 -81.6761 18° North 424 488 41,100  Level Jacksonville Center
07:38PM 32.3961 -81.6353 18° North 424 488 41,100  Level Jacksonville Center
07:39PM 32.5250 -81.5842 18° North 429 494 41,100  Level Jacksonville Center
07:40PM 32.6292 -81.5433 18° North 435 501 41,100 -60 Level Jacksonville Center
07:41PM 32.7411 -81.4775 26° Northeast 441 507 41,000 -60 Descending Jacksonville Center
07:42PM 32.8531 -81.4014 30° Northeast 449 517 41,000  Level Jacksonville Center
07:43PM 32.9647 -81.3253 30° Northeast 449 517 41,000 -180 Level Jacksonville Center
07:44PM 33.0703 -81.2442 33° Northeast 456 525 40,700 -660 Descending Jacksonville Center
07:45PM 33.1583 -81.1258 48° Northeast 461 531 39,700 -960 Descending Jacksonville Center
07:46PM 33.2547 -81.0047 46° Northeast 456 525 38,800 -900 Descending Jacksonville Center
07:47PM 33.3489 -80.8883 46° Northeast 461 531 38,000 -660 Descending Jacksonville Center
07:48PM 33.4369 -80.7819 45° Northeast 461 531 37,500 -720 Descending Jacksonville Center
07:49PM 33.5375 -80.6822 40° Northeast 455 524 36,600 -960 Descending Jacksonville Center
07:50PM 33.6378 -80.5825 40° Northeast 455 524 35,600 -960 Descending Jacksonville Center
07:51PM 33.7342 -80.4850 40° Northeast 455 524 34,700 -960 Descending Jacksonville Center
07:52PM 33.8433 -80.4072 31° Northeast 455 524 33,700 -1,080 Descending Jacksonville Center
07:53PM 33.9633 -80.3636 17° North 444 511 32,600 -1,080 Descending Jacksonville Center
07:54PM 34.0814 -80.3225 16° North 439 505 31,600 -1,020 Descending Jacksonville Center
07:55PM 34.1975 -80.2817 16° North 434 499 30,600 -1,020 Descending Jacksonville Center
07:57PM 34.3767 -80.2142 17° North 403 464 29,000 -1,020 Descending Washington Center
07:58PM 34.4908 -80.1728 17° North 414 476 28,000 -1,200 Descending Washington Center
07:59PM 34.6011 -80.1311 17° North 409 471 26,600 -1,800 Descending Washington Center
08:00PM 34.7175 -80.0869 17° North 419 482 24,400 -1,800 Descending Washington Center
08:01PM 34.8047 -80.0361 26° Northeast 432 497 23,000 -720 Descending Washington Center
08:02PM 34.9047 -79.9328 40° Northeast 424 488 23,000  Level Washington Center
08:03PM 34.9997 -79.8442 37° Northeast 424 488 23,000  Level Washington Center
08:04PM 35.0967 -79.7553 37° Northeast 424 488 23,000  Level Washington Center
08:05PM 35.1894 -79.6658 38° Northeast 424 488 23,000 -1,260 Level Washington Center
08:05PM 35.2564 -79.6033 37° Northeast 434 499 21,000 -2,820 Descending Washington Center
08:06PM 35.2842 -79.5792 35° Northeast 424 488 20,200 -2,940 Descending Washington Center
08:06PM 35.3272 -79.5406 36° Northeast 418 481 18,900 -2,340 Descending Washington Center
08:07PM 35.3744 -79.4969 37° Northeast 418 481 17,900 -1,440 Descending Washington Center
08:07PM 35.4111 -79.4631 37° Northeast 379 436 17,500 -1,020 Descending Washington Center
08:08PM 35.4628 -79.4172 36° Northeast 365 420 16,900 -1,320 Descending Washington Center
08:08PM 35.4883 -79.4006 28° Northeast 321 369 16,200 -1,620 Descending Washington Center
08:09PM 35.5253 -79.3539 46° Northeast 329 379 15,300 -1,620 Descending Washington Center
08:09PM 35.5494 -79.3142 53° Northeast 326 375 14,600 -1,800 Descending Washington Center
08:10PM 35.5825 -79.2569 55° Northeast 318 366 13,500 -1,800 Descending Washington Center
08:10PM 35.6108 -79.2147 50° Northeast 319 367 12,600 -1,500 Descending Washington Center
08:11PM 35.6331 -79.1750 55° Northeast 325 374 12,000 -1,440 Descending Washington Center
08:11PM 35.6550 -79.1375 54° Northeast 317 365 11,300 -1,440 Descending Washington Center
08:12PM 35.6792 -79.0978 53° Northeast 325 374 10,600 -1,500 Descending Washington Center
08:12PM 35.7075 -79.0531 52° Northeast 318 366 9,800 -1,740 Descending Washington Center
08:13PM 35.7361 -79.0056 53° Northeast 319 367 8,900 -1,500 Descending Washington Center
08:13PM 35.7625 -78.9581 56° Northeast 309 356 8,300 -840 Descending Washington Center
08:14PM 35.7842 -78.9231 53° Northeast 314 361 8,100 -300 Descending Washington Center
08:14PM 35.7958 -78.8800 72° East 275 316 8,000 -900 Descending Washington Center
08:15PM 35.7992 -78.8367 85° East 266 306 7,200 -1,380 Descending Washington Center
08:15PM 35.7983 -78.7881 91° East 262 302 6,600 -1,560 Descending Washington Center
08:16PM 35.8256 -78.7097 67° East 268 308 5,100 -1,620 Descending Washington Center
08:17PM 35.8708 -78.6447 49° Northeast 260 299 3,600 -1,320 Descending Washington Center
08:18PM 35.9164 -78.6619 343° North 215 247 2,500 -1,020 Descending Washington Center
08:19PM 35.9169 -78.7183 271° West 131 151 1,600 -720 Descending Washington Center
08:20PM 35.8953 -78.7561 235° Southwest 108 124 1,000 -540 Descending Washington Center
08:22PM 35.8667 -78.7833 227° Southwest  Level FlightAware Approximate
08:29PM 35.8776 -78.7875 227° Southwest  Level Estimated
08:30PM 35.8776 -78.7875 227° Southwest  Level Estimated
08:31PM 35.8776 -78.7875 227° Southwest  Level Estimated
08:32PM 35.8776 -78.7875 227° Southwest  Level Estimated